createdAt,value
2023-01-31T00:01:41.776Z,23.50
2023-01-31T00:04:12.798Z,24.98
2023-01-31T00:06:43.316Z,24.83
2023-01-31T00:09:11.965Z,22.15
2023-01-31T00:11:39.455Z,20.08
2023-01-31T00:14:08.228Z,19.15
2023-01-31T00:16:36.097Z,19.40
2023-01-31T00:19:04.458Z,18.58
2023-01-31T00:21:32.285Z,18.85
2023-01-31T00:24:00.304Z,21.40
2023-01-31T00:26:33.274Z,20.55
2023-01-31T00:29:05.265Z,21.17
2023-01-31T00:31:34.967Z,20.30
2023-01-31T00:34:02.892Z,18.13
2023-01-31T00:36:33.079Z,19.50
2023-01-31T00:39:02.237Z,20.23
2023-01-31T00:41:31.255Z,20.35
2023-01-31T00:43:58.886Z,20.27
2023-01-31T00:46:26.616Z,20.25
2023-01-31T00:48:54.618Z,18.77
2023-01-31T00:51:22.427Z,18.88
2023-01-31T00:53:50.583Z,18.90
2023-01-31T00:56:20.454Z,19.70
2023-01-31T00:58:47.733Z,19.70
2023-01-31T01:01:17.185Z,20.40
2023-01-31T01:03:45.414Z,19.52
2023-01-31T01:06:14.303Z,20.15
2023-01-31T01:08:42.703Z,22.17
2023-01-31T01:11:14.166Z,25.08
2023-01-31T01:13:41.932Z,21.35
2023-01-31T01:16:11.711Z,26.17
2023-01-31T01:18:39.267Z,24.38
2023-01-31T01:21:08.479Z,21.88
2023-01-31T01:23:36.332Z,22.55
2023-01-31T01:26:03.642Z,23.27
2023-01-31T01:28:34.516Z,20.92
2023-01-31T01:31:09.691Z,19.20
2023-01-31T01:33:37.757Z,18.88
2023-01-31T01:36:07.221Z,21.10
2023-01-31T01:38:36.468Z,24.15
2023-01-31T01:41:05.463Z,27.60
2023-01-31T01:43:49.347Z,24.70
2023-01-31T01:46:19.188Z,25.30
2023-01-31T01:48:50.501Z,26.63
2023-01-31T01:51:19.556Z,26.38
2023-01-31T01:53:50.239Z,24.48
2023-01-31T01:56:32.736Z,24.73
2023-01-31T01:59:06.523Z,25.73
2023-01-31T02:01:37.305Z,26.48
2023-01-31T02:04:06.822Z,25.42
2023-01-31T02:06:34.350Z,25.88
2023-01-31T02:09:03.608Z,25.83
2023-01-31T02:11:31.890Z,24.88
2023-01-31T02:14:07.902Z,22.98
2023-01-31T02:16:35.612Z,21.27
2023-01-31T02:19:05.022Z,21.45
2023-01-31T02:21:55.356Z,20.45
2023-01-31T02:24:59.967Z,19.48
2023-01-31T02:27:32.994Z,22.27
2023-01-31T02:30:09.269Z,19.17
2023-01-31T02:32:49.176Z,19.48
2023-01-31T02:35:43.744Z,19.95
2023-01-31T02:38:30.087Z,19.00
2023-01-31T02:41:00.190Z,19.23
2023-01-31T02:44:04.863Z,18.55
2023-01-31T02:46:52.786Z,19.30
2023-01-31T02:49:36.956Z,20.08
2023-01-31T02:52:29.429Z,18.95
2023-01-31T02:55:27.033Z,18.17
2023-01-31T02:57:57.413Z,18.67
2023-01-31T03:00:26.538Z,17.23
2023-01-31T03:02:53.690Z,18.25
2023-01-31T03:05:21.780Z,16.40
2023-01-31T03:07:54.552Z,16.60
2023-01-31T03:10:54.479Z,14.82
2023-01-31T03:13:57.971Z,18.02
2023-01-31T03:16:50.403Z,15.77
2023-01-31T03:19:39.160Z,17.90
2023-01-31T03:22:17.494Z,17.85
2023-01-31T03:24:47.499Z,19.20
2023-01-31T03:27:15.608Z,18.42
2023-01-31T03:29:44.254Z,16.52
2023-01-31T03:32:20.718Z,15.40
2023-01-31T03:34:48.066Z,18.15
2023-01-31T03:37:30.037Z,15.23
2023-01-31T03:40:21.993Z,16.23
2023-01-31T03:43:01.564Z,15.18
2023-01-31T03:45:32.491Z,14.50
2023-01-31T03:48:03.811Z,13.60
2023-01-31T03:50:42.601Z,15.02
2023-01-31T03:53:18.809Z,16.80
2023-01-31T03:56:08.379Z,15.10
2023-01-31T03:58:42.077Z,16.98
2023-01-31T04:01:11.424Z,14.88
2023-01-31T04:04:07.909Z,15.77
2023-01-31T04:06:35.594Z,18.23
2023-01-31T04:09:03.243Z,17.73
2023-01-31T04:11:30.748Z,18.73
2023-01-31T04:13:57.866Z,18.35
2023-01-31T04:16:25.058Z,18.92
2023-01-31T04:18:52.157Z,19.30
2023-01-31T04:21:19.296Z,18.85
2023-01-31T04:23:46.493Z,18.67
2023-01-31T04:26:13.569Z,19.25
2023-01-31T04:28:41.555Z,19.23
2023-01-31T04:31:09.600Z,18.15
2023-01-31T04:33:36.801Z,18.27
2023-01-31T04:36:04.392Z,17.73
2023-01-31T04:38:31.896Z,20.42
2023-01-31T04:40:58.952Z,18.20
2023-01-31T04:43:26.434Z,14.85
2023-01-31T04:45:53.688Z,12.52
2023-01-31T04:48:20.909Z,12.93
2023-01-31T04:50:47.962Z,13.80
2023-01-31T04:53:15.497Z,12.50
2023-01-31T04:55:42.724Z,13.55
2023-01-31T04:58:10.049Z,14.32
2023-01-31T05:00:37.544Z,13.32
2023-01-31T05:03:04.788Z,13.98
2023-01-31T05:05:36.291Z,16.58
2023-01-31T05:08:03.787Z,15.45
2023-01-31T05:10:31.563Z,14.50
2023-01-31T05:12:59.067Z,14.00
2023-01-31T05:15:26.893Z,13.10
2023-01-31T05:18:03.239Z,13.02
2023-01-31T05:20:41.127Z,13.18
2023-01-31T05:23:08.627Z,13.93
2023-01-31T05:25:37.104Z,14.18
2023-01-31T05:28:05.491Z,14.93
2023-01-31T05:30:32.923Z,13.75
2023-01-31T05:33:00.281Z,15.93
2023-01-31T05:35:27.607Z,18.25
2023-01-31T05:37:55.311Z,18.38
2023-01-31T05:40:23.137Z,19.50
2023-01-31T05:42:57.612Z,18.50
2023-01-31T05:45:25.080Z,19.08
2023-01-31T05:47:52.142Z,20.80
2023-01-31T05:50:19.995Z,21.70
2023-01-31T05:52:54.977Z,21.23
2023-01-31T05:55:23.075Z,20.83
2023-01-31T05:57:50.271Z,19.10
2023-01-31T06:00:17.623Z,20.83
2023-01-31T06:02:44.847Z,18.00
2023-01-31T06:05:12.716Z,19.02
2023-01-31T06:07:40.525Z,21.00
2023-01-31T06:10:09.995Z,21.98
2023-01-31T06:12:37.054Z,20.10
2023-01-31T06:15:05.155Z,25.13
2023-01-31T06:17:32.933Z,26.77
2023-01-31T06:20:00.314Z,28.20
2023-01-31T06:22:27.374Z,26.20
2023-01-31T06:24:54.415Z,27.42
2023-01-31T06:27:21.540Z,28.42
2023-01-31T06:29:48.624Z,32.58
2023-01-31T06:32:15.891Z,30.27
2023-01-31T06:34:43.065Z,30.92
2023-01-31T06:37:11.759Z,31.17
2023-01-31T06:39:38.823Z,31.67
2023-01-31T06:42:06.396Z,29.50
2023-01-31T06:44:33.902Z,30.77
2023-01-31T06:47:02.106Z,31.08
2023-01-31T06:49:29.493Z,38.22
2023-01-31T06:51:56.844Z,39.83
2023-01-31T06:54:23.986Z,38.78
2023-01-31T06:56:51.227Z,40.10
2023-01-31T06:59:18.282Z,39.05
2023-01-31T07:01:45.414Z,41.05
2023-01-31T07:04:13.119Z,39.13
2023-01-31T07:06:40.263Z,42.67
2023-01-31T07:09:07.873Z,43.13
2023-01-31T07:11:34.867Z,51.05
2023-01-31T07:14:01.870Z,47.70
2023-01-31T07:16:29.082Z,42.30
2023-01-31T07:18:56.563Z,39.42
2023-01-31T07:21:26.582Z,40.45
2023-01-31T07:23:53.836Z,40.45
2023-01-31T07:26:21.129Z,36.13
2023-01-31T07:28:48.415Z,36.65
2023-01-31T07:31:15.866Z,27.02
2023-01-31T07:33:43.140Z,26.50
2023-01-31T07:36:14.319Z,20.85
2023-01-31T07:38:41.934Z,18.77
2023-01-31T07:41:11.381Z,17.85
2023-01-31T07:43:38.967Z,15.35
2023-01-31T07:46:10.663Z,15.80
2023-01-31T07:48:38.351Z,13.52
2023-01-31T07:51:06.370Z,17.55
2023-01-31T07:53:36.261Z,24.10
2023-01-31T07:56:14.558Z,32.72
2023-01-31T07:58:43.478Z,33.45
2023-01-31T08:01:36.846Z,34.83
2023-01-31T08:04:19.380Z,33.67
2023-01-31T08:06:48.398Z,30.35
2023-01-31T08:09:15.721Z,30.80
2023-01-31T08:11:42.932Z,28.55
2023-01-31T08:14:11.694Z,25.40
2023-01-31T08:16:39.918Z,24.55
2023-01-31T08:19:07.008Z,23.80
2023-01-31T08:21:34.088Z,22.80
2023-01-31T08:24:01.191Z,21.35
2023-01-31T08:26:28.282Z,19.55
2023-01-31T08:28:55.362Z,19.20
2023-01-31T08:31:25.281Z,17.05
2023-01-31T08:33:53.567Z,17.35
2023-01-31T08:36:27.964Z,17.55
2023-01-31T08:38:56.194Z,18.67
2023-01-31T08:41:25.650Z,17.15
2023-01-31T08:43:56.611Z,16.60
2023-01-31T08:46:27.059Z,13.68
2023-01-31T08:48:54.708Z,9.10
2023-01-31T08:51:22.083Z,8.98
2023-01-31T08:53:49.779Z,10.13
2023-01-31T08:56:17.227Z,9.25
2023-01-31T08:58:45.381Z,9.05
2023-01-31T09:01:15.003Z,9.10
2023-01-31T09:03:45.044Z,8.10
2023-01-31T09:06:17.641Z,8.02
2023-01-31T09:08:44.811Z,8.10
2023-01-31T09:11:16.592Z,8.60
2023-01-31T09:13:43.911Z,8.48
2023-01-31T09:16:12.508Z,19.20
2023-01-31T09:18:40.436Z,28.77
2023-01-31T09:21:10.775Z,26.15
2023-01-31T09:23:42.100Z,21.90
2023-01-31T09:26:11.287Z,20.15
2023-01-31T09:28:38.599Z,18.88
2023-01-31T09:31:08.742Z,16.02
2023-01-31T09:33:36.465Z,16.50
2023-01-31T09:36:09.707Z,11.90
2023-01-31T09:41:14.558Z,11.20
2023-01-31T09:43:46.044Z,11.60
2023-01-31T09:46:20.050Z,10.30
2023-01-31T09:48:51.558Z,9.68
2023-01-31T09:51:19.875Z,9.45
2023-01-31T09:53:47.756Z,8.55
2023-01-31T09:56:28.394Z,7.20
2023-01-31T09:59:16.699Z,7.35
2023-01-31T10:02:22.279Z,7.15
2023-01-31T10:05:24.545Z,6.75
2023-01-31T10:08:13.586Z,6.63
2023-01-31T10:10:48.682Z,4.95
2023-01-31T10:13:37.572Z,5.32
2023-01-31T10:16:36.492Z,6.70
2023-01-31T10:19:10.166Z,5.28
2023-01-31T10:21:47.582Z,5.35
2023-01-31T10:24:25.157Z,5.35
2023-01-31T10:26:56.111Z,5.90
2023-01-31T10:29:43.587Z,5.13
2023-01-31T10:32:45.482Z,5.95
2023-01-31T10:35:26.625Z,5.47
2023-01-31T10:38:01.674Z,5.40
2023-01-31T10:40:37.953Z,5.22
2023-01-31T10:43:20.542Z,5.30
2023-01-31T10:45:47.668Z,4.68
2023-01-31T10:48:22.180Z,4.93
2023-01-31T10:50:58.300Z,5.60
2023-01-31T10:53:35.418Z,4.90
2023-01-31T10:56:25.364Z,5.15
2023-01-31T10:58:53.375Z,5.40
2023-01-31T11:01:20.592Z,5.15
2023-01-31T11:03:53.745Z,5.22
2023-01-31T11:08:54.942Z,5.00
2023-01-31T11:11:24.372Z,4.95
2023-01-31T11:14:06.317Z,5.05
2023-01-31T11:16:39.625Z,5.65
2023-01-31T11:19:27.343Z,6.78
2023-01-31T11:21:54.903Z,6.78
2023-01-31T11:24:30.718Z,6.35
2023-01-31T11:26:59.970Z,5.32
2023-01-31T11:29:50.578Z,6.20
2023-01-31T11:32:23.564Z,6.13
2023-01-31T11:35:06.646Z,5.57
2023-01-31T11:37:34.964Z,5.05
2023-01-31T11:40:26.447Z,4.90
2023-01-31T11:42:59.076Z,5.45
2023-01-31T11:45:32.461Z,5.18
2023-01-31T11:48:25.723Z,5.25
2023-01-31T11:50:56.493Z,5.32
2023-01-31T11:53:26.805Z,5.55
2023-01-31T11:55:58.101Z,5.53
2023-01-31T11:58:36.036Z,6.28
2023-01-31T12:01:15.179Z,8.25
2023-01-31T12:04:02.636Z,6.82
2023-01-31T12:06:40.328Z,6.35
2023-01-31T12:09:30.212Z,5.13
2023-01-31T12:12:02.843Z,5.45
2023-01-31T12:14:41.106Z,5.47
2023-01-31T12:17:15.583Z,5.80
2023-01-31T12:19:51.607Z,4.95
2023-01-31T12:22:45.413Z,4.95
2023-01-31T12:25:34.240Z,5.63
2023-01-31T12:28:10.146Z,6.10
2023-01-31T12:30:55.207Z,5.13
2023-01-31T12:33:39.782Z,5.82
2023-01-31T12:36:15.931Z,7.38
2023-01-31T12:38:58.869Z,6.78
2023-01-31T12:41:50.450Z,7.25
2023-01-31T12:44:29.609Z,5.75
2023-01-31T12:47:10.510Z,7.00
2023-01-31T12:50:05.498Z,7.25
2023-01-31T12:52:58.857Z,6.40
2023-01-31T12:55:33.027Z,6.97
2023-01-31T12:58:30.100Z,7.05
2023-01-31T13:01:14.825Z,6.45
2023-01-31T13:03:52.623Z,6.53
2023-01-31T13:06:27.902Z,5.07
2023-01-31T13:09:09.040Z,5.72
2023-01-31T13:11:45.132Z,6.15
2023-01-31T13:14:20.618Z,5.72
2023-01-31T13:16:55.375Z,6.53
2023-01-31T13:19:52.235Z,7.18
2023-01-31T13:22:38.528Z,5.63
2023-01-31T13:25:14.387Z,4.72
2023-01-31T13:27:49.270Z,4.43
2023-01-31T13:30:33.656Z,2.55
2023-01-31T13:33:04.025Z,2.65
2023-01-31T13:35:37.443Z,3.10
2023-01-31T13:38:20.105Z,2.83
2023-01-31T13:40:56.949Z,3.08
2023-01-31T13:43:24.152Z,4.70
2023-01-31T13:46:02.498Z,3.03
2023-01-31T13:48:42.954Z,1.52
2023-01-31T13:51:27.946Z,2.10
2023-01-31T13:54:17.130Z,2.22
2023-01-31T13:56:51.587Z,2.10
2023-01-31T13:59:24.758Z,2.92
2023-01-31T14:04:25.570Z,1.95
2023-01-31T14:07:04.546Z,2.05
2023-01-31T14:09:42.194Z,2.42
2023-01-31T14:12:36.536Z,2.53
2023-01-31T14:15:44.698Z,2.22
2023-01-31T14:18:12.150Z,1.83
2023-01-31T14:20:39.736Z,2.60
2023-01-31T14:23:28.419Z,2.08
2023-01-31T14:25:56.016Z,2.90
2023-01-31T14:28:25.539Z,3.45
2023-01-31T14:30:54.367Z,3.00
2023-01-31T14:33:25.525Z,2.60
2023-01-31T14:36:16.121Z,2.38
2023-01-31T14:39:11.577Z,2.70
2023-01-31T14:41:56.686Z,2.40
2023-01-31T14:44:42.756Z,2.05
2023-01-31T14:47:27.296Z,1.70
2023-01-31T14:50:37.385Z,1.52
2023-01-31T14:53:34.162Z,1.67
2023-01-31T14:56:42.806Z,1.50
2023-01-31T14:59:27.685Z,1.83
2023-01-31T15:01:56.216Z,2.25
2023-01-31T15:04:27.612Z,2.22
2023-01-31T15:06:56.712Z,1.98
2023-01-31T15:09:28.023Z,2.67
2023-01-31T15:11:58.012Z,3.53
2023-01-31T15:14:41.240Z,7.80
2023-01-31T15:17:35.977Z,10.25
2023-01-31T15:20:12.975Z,11.35
2023-01-31T15:22:42.240Z,13.55
2023-01-31T15:25:48.117Z,13.93
2023-01-31T15:28:20.003Z,17.63
2023-01-31T15:30:48.744Z,20.00
2023-01-31T15:33:38.790Z,17.65
2023-01-31T15:36:29.755Z,14.07
2023-01-31T15:39:18.605Z,13.52
2023-01-31T15:41:45.978Z,14.95
2023-01-31T15:44:24.833Z,16.27
2023-01-31T15:46:54.348Z,16.25
2023-01-31T15:49:40.495Z,15.63
2023-01-31T15:52:15.740Z,14.57
2023-01-31T15:55:04.267Z,13.85
2023-01-31T15:57:43.356Z,12.50
2023-01-31T16:00:34.838Z,11.70
2023-01-31T16:03:10.019Z,12.52
2023-01-31T16:05:39.968Z,12.77
2023-01-31T16:08:37.616Z,13.90
2023-01-31T16:11:07.808Z,13.63
2023-01-31T16:13:38.302Z,14.43
2023-01-31T16:16:07.609Z,17.00
2023-01-31T16:18:37.316Z,17.98
2023-01-31T16:21:32.249Z,22.63
2023-01-31T16:24:00.713Z,19.15
2023-01-31T16:26:35.154Z,15.82
2023-01-31T16:29:09.523Z,16.40
2023-01-31T16:31:50.989Z,16.38
2023-01-31T16:34:28.633Z,16.63
2023-01-31T16:37:07.356Z,15.95
2023-01-31T16:39:41.817Z,15.10
2023-01-31T16:42:22.568Z,15.10
2023-01-31T16:44:51.335Z,15.68
2023-01-31T16:47:40.069Z,15.80
2023-01-31T16:50:41.887Z,17.63
2023-01-31T16:53:28.732Z,17.10
2023-01-31T16:56:14.106Z,17.13
2023-01-31T16:58:56.409Z,19.70
2023-01-31T17:01:34.530Z,18.58
2023-01-31T17:04:15.757Z,19.13
2023-01-31T17:06:45.210Z,18.10
2023-01-31T17:09:19.236Z,19.92
2023-01-31T17:11:47.214Z,18.90
2023-01-31T17:14:14.349Z,20.25
2023-01-31T17:16:41.488Z,21.48
2023-01-31T17:19:08.690Z,22.77
2023-01-31T17:21:41.002Z,21.17
2023-01-31T17:24:13.826Z,20.20
2023-01-31T17:26:41.070Z,14.57
2023-01-31T17:29:08.283Z,19.23
2023-01-31T17:31:35.457Z,18.00
2023-01-31T17:34:03.446Z,17.25
2023-01-31T17:36:30.551Z,19.80
2023-01-31T17:38:57.639Z,20.48
2023-01-31T17:41:25.895Z,21.02
2023-01-31T17:43:53.034Z,22.35
2023-01-31T17:46:20.315Z,20.33
2023-01-31T17:48:47.609Z,19.50
2023-01-31T17:51:14.759Z,19.60
2023-01-31T17:53:49.418Z,19.65
2023-01-31T17:56:18.686Z,18.92
2023-01-31T17:58:46.238Z,19.58
2023-01-31T18:01:14.510Z,19.10
2023-01-31T18:03:42.337Z,18.23
2023-01-31T18:06:10.327Z,17.45
2023-01-31T18:08:37.874Z,16.35
2023-01-31T18:11:07.919Z,17.52
2023-01-31T18:13:38.121Z,16.80
2023-01-31T18:16:06.921Z,17.40
2023-01-31T18:18:35.194Z,17.05
2023-01-31T18:21:03.012Z,19.13
2023-01-31T18:23:30.226Z,19.38
2023-01-31T18:25:57.381Z,20.75
2023-01-31T18:28:24.497Z,20.10
2023-01-31T18:30:51.881Z,19.38
2023-01-31T18:33:18.927Z,17.98
2023-01-31T18:35:56.681Z,18.27
2023-01-31T18:38:24.067Z,18.23
2023-01-31T18:40:51.144Z,19.80
2023-01-31T18:43:18.405Z,20.90
2023-01-31T18:45:45.540Z,22.73
2023-01-31T18:48:12.657Z,21.35
2023-01-31T18:50:40.034Z,19.45
2023-01-31T18:53:07.294Z,19.98
2023-01-31T18:55:34.482Z,18.98
2023-01-31T18:58:01.826Z,18.52
2023-01-31T19:00:29.084Z,20.88
2023-01-31T19:02:56.261Z,18.17
2023-01-31T19:05:23.919Z,19.67
2023-01-31T19:07:51.430Z,22.38
2023-01-31T19:10:18.990Z,22.00
2023-01-31T19:12:47.456Z,19.90
2023-01-31T19:15:14.477Z,28.23
2023-01-31T19:17:41.626Z,29.75
2023-01-31T19:20:10.004Z,30.65
2023-01-31T19:22:37.118Z,27.90
2023-01-31T19:25:05.762Z,28.65
2023-01-31T19:27:32.872Z,26.63
2023-01-31T19:30:00.606Z,24.58
2023-01-31T19:32:29.368Z,22.98
2023-01-31T19:34:56.635Z,26.55
2023-01-31T19:37:23.818Z,28.88
2023-01-31T19:39:51.027Z,29.17
2023-01-31T19:42:18.794Z,30.73
2023-01-31T19:44:45.968Z,29.17
2023-01-31T19:47:13.089Z,29.95
2023-01-31T19:49:40.252Z,30.73
2023-01-31T19:52:07.394Z,32.97
2023-01-31T19:54:34.660Z,37.60
2023-01-31T19:57:01.842Z,38.13
2023-01-31T19:59:30.566Z,39.42
2023-01-31T20:01:57.873Z,45.75
2023-01-31T20:04:25.162Z,40.50
2023-01-31T20:06:53.912Z,32.30
2023-01-31T20:09:21.299Z,39.85
2023-01-31T20:11:51.034Z,39.55
2023-01-31T20:14:19.621Z,39.08
2023-01-31T20:16:48.931Z,47.13
2023-01-31T20:19:17.661Z,48.47
2023-01-31T20:21:46.176Z,32.42
2023-01-31T20:24:13.941Z,33.78
2023-01-31T20:26:41.264Z,41.72
2023-01-31T20:29:10.043Z,35.08
2023-01-31T20:31:37.336Z,31.50
2023-01-31T20:34:07.027Z,41.67
2023-01-31T20:36:35.127Z,44.53
2023-01-31T20:39:03.708Z,45.63
2023-01-31T20:41:31.033Z,60.33
2023-01-31T20:43:58.617Z,56.20
2023-01-31T20:46:26.032Z,52.20
2023-01-31T20:48:53.367Z,45.30
2023-01-31T20:51:20.762Z,35.67
2023-01-31T20:53:48.095Z,33.47
2023-01-31T20:56:15.406Z,36.13
2023-01-31T20:58:43.667Z,39.72
2023-01-31T21:01:12.469Z,47.92
2023-01-31T21:03:39.908Z,49.72
2023-01-31T21:06:08.378Z,34.35
2023-01-31T21:08:36.243Z,31.05
2023-01-31T21:11:13.377Z,27.27
2023-01-31T21:13:43.512Z,34.67
2023-01-31T21:16:15.705Z,31.25
2023-01-31T21:18:44.479Z,34.05
2023-01-31T21:21:14.735Z,38.45
2023-01-31T21:23:42.849Z,41.17
2023-01-31T21:26:12.632Z,45.97
2023-01-31T21:28:44.036Z,39.30
2023-01-31T21:31:17.555Z,36.70
2023-01-31T21:33:50.492Z,37.60
2023-01-31T21:36:20.819Z,34.53
2023-01-31T21:38:48.427Z,37.95
2023-01-31T21:41:36.338Z,37.67
2023-01-31T21:44:04.162Z,36.58
2023-01-31T21:46:32.514Z,38.08
2023-01-31T21:49:00.417Z,35.65
2023-01-31T21:51:29.014Z,33.22
2023-01-31T21:53:57.306Z,31.10
2023-01-31T21:56:29.386Z,30.70
2023-01-31T21:58:57.932Z,34.88
2023-01-31T22:01:27.736Z,47.38
2023-01-31T22:03:55.663Z,46.70
2023-01-31T22:06:25.934Z,63.60
2023-01-31T22:08:58.149Z,66.45
2023-01-31T22:11:27.095Z,80.88
2023-01-31T22:13:56.162Z,79.68
2023-01-31T22:16:27.719Z,74.63
2023-01-31T22:18:55.569Z,59.92
2023-01-31T22:21:29.367Z,52.35
2023-01-31T22:24:21.270Z,48.63
2023-01-31T22:26:48.581Z,49.03
2023-01-31T22:29:18.001Z,46.25
2023-01-31T22:31:46.317Z,46.22
2023-01-31T22:34:15.305Z,47.70
2023-01-31T22:36:44.004Z,52.38
2023-01-31T22:39:13.449Z,49.15
2023-01-31T22:41:40.784Z,50.20
2023-01-31T22:44:07.880Z,49.08
2023-01-31T22:46:34.957Z,47.85
2023-01-31T22:49:02.067Z,44.75
2023-01-31T22:51:30.066Z,41.75
2023-01-31T22:53:58.240Z,44.67
2023-01-31T22:56:31.895Z,41.45
2023-01-31T22:59:01.405Z,43.92
2023-01-31T23:01:31.517Z,45.55
2023-01-31T23:04:01.403Z,46.95
2023-01-31T23:06:29.311Z,40.80
2023-01-31T23:08:57.080Z,37.83
2023-01-31T23:11:24.613Z,36.88
2023-01-31T23:13:52.119Z,32.75
2023-01-31T23:16:21.893Z,33.13
2023-01-31T23:18:49.117Z,34.45
2023-01-31T23:21:18.897Z,34.13
2023-01-31T23:23:46.425Z,35.10
2023-01-31T23:26:14.261Z,33.20
2023-01-31T23:28:41.470Z,36.38
2023-01-31T23:31:08.630Z,34.78
2023-01-31T23:33:35.764Z,34.83
2023-01-31T23:36:03.004Z,29.80
2023-01-31T23:38:30.311Z,29.48
2023-01-31T23:40:57.438Z,31.35
2023-01-31T23:43:24.647Z,30.20
2023-01-31T23:45:51.823Z,34.88
2023-01-31T23:48:19.081Z,34.63
2023-01-31T23:50:46.224Z,37.33
2023-01-31T23:53:13.392Z,36.95
2023-01-31T23:55:40.834Z,39.28
2023-01-31T23:58:07.941Z,38.03
